Time;durP1;ratioP1;P1;durP2;ratioP2;P2;SDS_P1;SDS_P2;PMS_P1;PMS_P2;Temp;Humidity;BMP_temperature;BMP_pressure;BME280_temperature;BME280_humidity;BME280_pressure;Samples;Min_cycle;Max_cycle;Signal;HPM_P1;HPM_P2
2022/08/06 00:00:43;;;;;;;;;;;;;;;;;;5094443;28;20370;-89
2022/08/06 00:03:08;;;;;;;;;;;;;;;;;;5094261;28;19918;-89
2022/08/06 00:05:34;;;;;;;;;;;;;;;;;;5094199;28;20010;-89
2022/08/06 00:07:59;;;;;;;;;;;;;;;;;;5094164;28;19923;-88
2022/08/06 00:10:25;;;;;;;;;;;;;;;;;;5093981;28;19916;-89
2022/08/06 00:12:51;;;;;;;;;;;;;;;;;;5094155;28;19961;-89
2022/08/06 00:15:19;;;;;;;;;;;;;;;;;;5094155;28;19912;-88
2022/08/06 00:17:45;;;;;;;;;;;;;;;;;;5094001;28;19916;-89
2022/08/06 00:20:11;;;;;;;;;;;;;;;;;;5094047;28;20023;-89
2022/08/06 00:22:37;;;;;;;;;;;;;;;;;;5093993;28;19912;-88
2022/08/06 00:25:02;;;;;;;;;;;;;;;;;;5093896;28;20006;-88
2022/08/06 00:27:28;;;;;;;;;;;;;;;;;;5093780;28;19920;-89
2022/08/06 00:29:53;;;;;;;;;;;;;;;;;;5092560;28;19923;-89
2022/08/06 00:32:18;;;;;;;;;;;;;;;;;;5093746;28;20290;-89
2022/08/06 00:34:44;;;;;;;;;;;;;;;;;;5093838;28;20378;-89
2022/08/06 00:37:10;;;;;;;;;;;;;;;;;;5092610;28;19917;-88
2022/08/06 00:39:35;;;;;;;;;;;;;;;;;;5093950;28;19912;-88
2022/08/06 00:42:01;;;;;;;;;;;;;;;;;;5100054;28;19952;-88
2022/08/06 00:44:26;;;;;;;;;;;;;;;;;;5094032;28;19917;-88
2022/08/06 00:46:51;;;;;;;;;;;;;;;;;;5092899;28;19927;-89
2022/08/06 00:49:17;;;;;;;;;;;;;;;;;;5093581;28;20010;-90
2022/08/06 00:51:42;;;;;;;;;;;;;;;;;;5094889;28;20264;-89
2022/08/06 00:54:08;;;;;;;;;;;;;;;;;;5094026;28;20363;-89
2022/08/06 00:56:33;;;;;;;;;;;;;;;;;;5091540;28;20372;-89
2022/08/06 00:58:59;;;;;;;;;;;;;;;;;;5092973;28;19916;-88
2022/08/06 01:01:24;;;;;;;;;;;;;;;;;;5092159;28;19923;-89
2022/08/06 01:03:50;;;;;;;;;;;;;;;;;;5093662;28;19984;-88
2022/08/06 01:06:15;;;;;;;;;;;;;;;;;;5094981;28;20424;-89
2022/08/06 01:08:40;;;;;;;;;;;;;;;;;;5093774;28;19923;-89
2022/08/06 01:11:06;;;;;;;;;;;;;;;;;;5092260;28;19916;-88
2022/08/06 01:13:31;;;;;;;;;;;;;;;;;;5093611;28;19916;-88
2022/08/06 01:16:12;;;;;;;;;;;;;;;;;;5093535;28;19920;-89
2022/08/06 01:18:59;;;;;;;;;;;;;;;;;;5093386;28;19920;-88
2022/08/06 01:21:43;;;;;;;;;;;;;;;;;;5092175;28;19921;-89
2022/08/06 01:24:17;;;;;;;;;;;;;;;;;;5093441;28;20429;-88
2022/08/06 01:26:48;;;;;;;;;;;;;;;;;;5091985;28;19916;-89
2022/08/06 01:29:19;;;;;;;;;;;;;;;;;;5093492;28;19916;-88
2022/08/06 01:31:47;;;;;;;;;;;;;;;;;;5091956;28;20012;-88
2022/08/06 01:34:18;;;;;;;;;;;;;;;;;;5095721;28;20334;-89
2022/08/06 01:36:46;;;;;;;;;;;;;;;;;;5094730;28;19916;-88
2022/08/06 01:39:12;;;;;;;;;;;;;;;;;;5098144;28;19923;-89
2022/08/06 01:41:43;;;;;;;;;;;;;;;;;;5097295;28;19916;-88
2022/08/06 01:44:13;;;;;;;;;;;;;;;;;;5096984;28;19916;-89
2022/08/06 01:46:43;;;;;;;;;;;;;;;;;;5096912;28;20015;-88
2022/08/06 01:49:10;;;;;;;;;;;;;;;;;;5095564;28;19923;-88
2022/08/06 01:51:37;;;;;;;;;;;;;;;;;;5095675;28;19969;-88
2022/08/06 01:54:03;;;;;;;;;;;;;;;;;;5097066;28;20320;-89
2022/08/06 01:56:30;;;;;;;;;;;;;;;;;;5108929;28;20322;-89
2022/08/06 01:58:58;;;;;;;;;;;;;;;;;;5111786;28;20045;-89
2022/08/06 02:01:24;;;;;;;;;;;;;;;;;;5106046;28;19929;-90
2022/08/06 02:03:53;;;;;;;;;;;;;;;;;;5110304;28;19916;-89
2022/08/06 02:06:24;;;;;;;;;;;;;;;;;;5107054;28;19983;-88
2022/08/06 02:08:51;;;;;;;;;;;;;;;;;;5100348;28;20003;-88
2022/08/06 02:11:16;;;;;;;;;;;;;;;;;;5097136;28;19923;-88
2022/08/06 02:13:43;;;;;;;;;;;;;;;;;;5096540;28;19916;-89
2022/08/06 02:16:09;;;;;;;;;;;;;;;;;;5095378;28;20381;-89
2022/08/06 02:18:39;;;;;;;;;;;;;;;;;;5096255;28;20426;-89
2022/08/06 02:21:06;;;;;;;;;;;;;;;;;;5094890;28;20386;-89
2022/08/06 02:23:32;;;;;;;;;;;;;;;;;;5096085;28;20328;-88
2022/08/06 02:25:59;;;;;;;;;;;;;;;;;;5094817;28;20446;-89
2022/08/06 02:28:26;;;;;;;;;;;;;;;;;;5095990;28;20014;-88
2022/08/06 02:30:53;;;;;;;;;;;;;;;;;;5095897;28;20252;-89
2022/08/06 02:33:18;;;;;;;;;;;;;;;;;;5095950;28;19916;-89
2022/08/06 02:35:54;;;;;;;;;;;;;;;;;;5095835;28;19912;-90
2022/08/06 02:38:23;;;;;;;;;;;;;;;;;;5095868;28;19916;-88
2022/08/06 02:40:53;;;;;;;;;;;;;;;;;;5095811;28;19912;-88
2022/08/06 02:43:22;;;;;;;;;;;;;;;;;;5095818;28;19985;-88
2022/08/06 02:46:06;;;;;;;;;;;;;;;;;;5094361;28;19916;-88
2022/08/06 02:49:01;;;;;;;;;;;;;;;;;;5094343;28;19969;-90
2022/08/06 02:51:31;;;;;;;;;;;;;;;;;;5077837;28;20393;-89
2022/08/06 02:54:08;;;;;;;;;;;;;;;;;;5094375;28;19916;-89
2022/08/06 02:56:36;;;;;;;;;;;;;;;;;;5095657;28;19998;-88
2022/08/06 02:59:02;;;;;;;;;;;;;;;;;;5095455;28;19916;-89
2022/08/06 03:01:34;;;;;;;;;;;;;;;;;;5095386;28;19927;-89
2022/08/06 03:04:01;;;;;;;;;;;;;;;;;;5095344;28;19924;-88
2022/08/06 03:06:29;;;;;;;;;;;;;;;;;;5094098;28;19916;-89
2022/08/06 03:08:56;;;;;;;;;;;;;;;;;;5094001;28;20276;-88
2022/08/06 03:11:22;;;;;;;;;;;;;;;;;;5095169;28;19916;-89
2022/08/06 03:13:48;;;;;;;;;;;;;;;;;;5095157;28;20049;-89
2022/08/06 03:16:14;;;;;;;;;;;;;;;;;;5095161;28;20492;-89
2022/08/06 03:18:41;;;;;;;;;;;;;;;;;;5095039;28;20390;-89
2022/08/06 03:21:08;;;;;;;;;;;;;;;;;;5095130;28;19923;-89
2022/08/06 03:23:33;;;;;;;;;;;;;;;;;;5094915;28;19918;-89
2022/08/06 03:25:59;;;;;;;;;;;;;;;;;;5093692;28;19916;-89
2022/08/06 03:28:25;;;;;;;;;;;;;;;;;;5094776;28;20029;-88
2022/08/06 03:30:51;;;;;;;;;;;;;;;;;;5093471;28;19923;-88
2022/08/06 03:33:18;;;;;;;;;;;;;;;;;;5093953;28;19916;-89
2022/08/06 03:35:44;;;;;;;;;;;;;;;;;;5093396;28;19912;-89
2022/08/06 03:38:10;;;;;;;;;;;;;;;;;;5094891;28;19916;-88
2022/08/06 03:40:37;;;;;;;;;;;;;;;;;;5094916;28;20363;-89
2022/08/06 03:43:03;;;;;;;;;;;;;;;;;;5094606;28;19917;-89
2022/08/06 03:45:29;;;;;;;;;;;;;;;;;;5094615;28;19969;-88
2022/08/06 03:47:56;;;;;;;;;;;;;;;;;;5094255;28;19916;-88
2022/08/06 03:50:24;;;;;;;;;;;;;;;;;;5093718;28;20355;-88
2022/08/06 03:52:53;;;;;;;;;;;;;;;;;;5093164;28;19924;-88
2022/08/06 03:55:20;;;;;;;;;;;;;;;;;;5093116;28;20019;-89
2022/08/06 03:57:47;;;;;;;;;;;;;;;;;;5094038;28;20001;-89
2022/08/06 04:00:14;;;;;;;;;;;;;;;;;;5092639;28;20394;-89
2022/08/06 04:02:41;;;;;;;;;;;;;;;;;;5093031;28;19966;-89
2022/08/06 04:05:07;;;;;;;;;;;;;;;;;;5094322;28;20021;-89
2022/08/06 04:07:33;;;;;;;;;;;;;;;;;;5094466;28;20302;-90
2022/08/06 04:10:02;;;;;;;;;;;;;;;;;;5094191;28;20018;-91
2022/08/06 04:12:30;;;;;;;;;;;;;;;;;;5094165;28;19920;-89
2022/08/06 04:14:55;;;;;;;;;;;;;;;;;;5092959;28;19925;-89
2022/08/06 04:17:21;;;;;;;;;;;;;;;;;;5094032;28;19916;-89
2022/08/06 04:19:47;;;;;;;;;;;;;;;;;;5094010;28;19962;-89
2022/08/06 04:22:13;;;;;;;;;;;;;;;;;;5094301;28;19923;-88
2022/08/06 04:24:38;;;;;;;;;;;;;;;;;;5092662;28;19916;-89
2022/08/06 04:27:04;;;;;;;;;;;;;;;;;;5093750;28;19969;-88
2022/08/06 04:29:31;;;;;;;;;;;;;;;;;;5094046;28;20291;-89
2022/08/06 04:31:58;;;;;;;;;;;;;;;;;;5093782;28;19922;-89
2022/08/06 04:34:24;;;;;;;;;;;;;;;;;;5094121;28;19916;-89
2022/08/06 04:36:51;;;;;;;;;;;;;;;;;;5093783;28;19930;-89
2022/08/06 04:39:17;;;;;;;;;;;;;;;;;;5093895;28;19916;-89
2022/08/06 04:41:42;;;;;;;;;;;;;;;;;;5093778;28;20421;-89
2022/08/06 04:44:08;;;;;;;;;;;;;;;;;;5085230;28;20019;-89
2022/08/06 04:46:34;;;;;;;;;;;;;;;;;;5081504;28;19920;-89
2022/08/06 04:49:00;;;;;;;;;;;;;;;;;;5082599;28;19930;-90
2022/08/06 04:51:25;;;;;;;;;;;;;;;;;;5081394;28;20368;-89
2022/08/06 04:53:50;;;;;;;;;;;;;;;;;;5083902;28;19924;-89
2022/08/06 04:56:16;;;;;;;;;;;;;;;;;;5080760;28;19924;-89
2022/08/06 04:58:41;;;;;;;;;;;;;;;;;;5083518;28;20402;-90
2022/08/06 05:01:07;;;;;;;;;;;;;;;;;;5083496;28;19939;-90
2022/08/06 05:03:32;;;;;;;;;;;;;;;;;;5081781;28;20109;-90
2022/08/06 05:06:01;;;;;;;;;;;;;;;;;;5082282;28;19917;-90
2022/08/06 05:08:28;;;;;;;;;;;;;;;;;;5082196;28;20019;-89
2022/08/06 05:11:00;;;;;;;;;;;;;;;;;;5090487;28;19916;-90
2022/08/06 05:13:29;;;;;;;;;;;;;;;;;;5096114;28;20011;-90
2022/08/06 05:15:56;;;;;;;;;;;;;;;;;;5097423;28;19923;-89
2022/08/06 05:18:26;;;;;;;;;;;;;;;;;;5096158;28;19954;-90
2022/08/06 05:20:54;;;;;;;;;;;;;;;;;;5097392;28;20060;-89
2022/08/06 05:23:38;;;;;;;;;;;;;;;;;;5095811;28;20488;-90
2022/08/06 05:26:04;;;;;;;;;;;;;;;;;;5074658;28;19916;-89
2022/08/06 05:28:30;;;;;;;;;;;;;;;;;;5075117;28;19974;-90
2022/08/06 05:30:56;;;;;;;;;;;;;;;;;;5067147;28;19920;-90
2022/08/06 05:33:24;;;;;;;;;;;;;;;;;;5055587;28;20368;-89
2022/08/06 05:35:50;;;;;;;;;;;;;;;;;;5055266;28;20379;-90
2022/08/06 05:38:15;;;;;;;;;;;;;;;;;;5056643;28;19917;-90
2022/08/06 05:40:41;;;;;;;;;;;;;;;;;;5056658;28;20272;-89
2022/08/06 05:43:06;;;;;;;;;;;;;;;;;;5056548;28;19924;-89
2022/08/06 05:45:32;;;;;;;;;;;;;;;;;;5055645;28;19943;-91
2022/08/06 05:47:59;;;;;;;;;;;;;;;;;;5070701;28;19947;-90
2022/08/06 05:50:28;;;;;;;;;;;;;;;;;;5076458;28;19924;-91
2022/08/06 05:52:56;;;;;;;;;;;;;;;;;;5076450;28;19916;-91
2022/08/06 05:55:25;;;;;;;;;;;;;;;;;;5067012;28;19916;-91
2022/08/06 05:57:56;;;;;;;;;;;;;;;;;;5067031;28;19921;-91
2022/08/06 06:00:23;;;;;;;;;;;;;;;;;;5067644;28;19917;-90
2022/08/06 06:02:53;;;;;;;;;;;;;;;;;;5062642;28;19931;-92
2022/08/06 06:05:19;;;;;;;;;;;;;;;;;;5064613;28;19973;-91
2022/08/06 06:07:45;;;;;;;;;;;;;;;;;;5076826;28;19916;-90
2022/08/06 06:10:12;;;;;;;;;;;;;;;;;;5076642;28;20449;-91
2022/08/06 06:12:39;;;;;;;;;;;;;;;;;;5075790;28;19927;-92
2022/08/06 06:15:05;;;;;;;;;;;;;;;;;;5083538;28;19927;-90
2022/08/06 06:17:36;;;;;;;;;;;;;;;;;;5084778;28;19995;-91
2022/08/06 06:20:22;;;;;;;;;;;;;;;;;;5089436;28;20311;-91
2022/08/06 06:23:08;;;;;;;;;;;;;;;;;;5029879;28;19920;-90
2022/08/06 06:25:36;;;;;;;;;;;;;;;;;;5077820;28;20372;-90
2022/08/06 06:28:04;;;;;;;;;;;;;;;;;;5075722;28;20326;-90
2022/08/06 06:30:38;;;;;;;;;;;;;;;;;;5076061;28;20388;-91
2022/08/06 06:33:10;;;;;;;;;;;;;;;;;;5075629;28;19949;-90
2022/08/06 06:36:02;;;;;;;;;;;;;;;;;;5073224;28;19920;-90
2022/08/06 06:38:43;;;;;;;;;;;;;;;;;;5062311;28;19928;-90
2022/08/06 06:41:14;;;;;;;;;;;;;;;;;;5067619;28;19962;-90
2022/08/06 06:43:51;;;;;;;;;;;;;;;;;;5073748;28;19923;-87
2022/08/06 06:46:17;;;;;;;;;;;;;;;;;;5076146;28;19983;-90
2022/08/06 06:48:48;;;;;;;;;;;;;;;;;;5076517;28;20026;-90
2022/08/06 06:51:21;;;;;;;;;;;;;;;;;;5078637;28;20304;-90
2022/08/06 06:53:49;;;;;;;;;;;;;;;;;;5078988;28;19966;-91
2022/08/06 06:56:16;;;;;;;;;;;;;;;;;;5075819;28;19917;-90
2022/08/06 06:58:45;;;;;;;;;;;;;;;;;;5076923;28;19916;-90
2022/08/06 07:01:35;;;;;;;;;;;;;;;;;;5077205;28;19917;-91
2022/08/06 07:04:05;;;;;;;;;;;;;;;;;;5090620;22;19931;-90
2022/08/06 07:06:40;;;;;;;;;;;;;;;;;;5098940;28;19946;-90
2022/08/06 07:09:06;;;;;;;;;;;;;;;;;;5099497;28;19979;-91
2022/08/06 07:11:33;;;;;;;;;;;;;;;;;;5099255;28;19955;-90
2022/08/06 07:13:59;;;;;;;;;;;;;;;;;;5098480;28;20464;-91
2022/08/06 07:16:25;;;;;;;;;;;;;;;;;;5079348;28;20019;-90
2022/08/06 07:18:53;;;;;;;;;;;;;;;;;;5095057;28;20355;-91
2022/08/06 07:21:19;;;;;;;;;;;;;;;;;;5096279;28;19921;-91
2022/08/06 07:23:46;;;;;;;;;;;;;;;;;;5096693;28;19928;-91
2022/08/06 07:26:16;;;;;;;;;;;;;;;;;;5068996;28;19921;-90
2022/08/06 07:28:42;;;;;;;;;;;;;;;;;;5077808;28;19923;-91
2022/08/06 07:31:08;;;;;;;;;;;;;;;;;;5078873;28;19920;-91
2022/08/06 07:33:34;;;;;;;;;;;;;;;;;;5076470;28;19917;-89
2022/08/06 07:36:00;;;;;;;;;;;;;;;;;;5077368;28;20371;-90
2022/08/06 07:38:31;;;;;;;;;;;;;;;;;;5078183;28;19959;-89
2022/08/06 07:40:59;;;;;;;;;;;;;;;;;;5077771;28;20283;-90
2022/08/06 07:43:27;;;;;;;;;;;;;;;;;;5078586;28;19912;-91
2022/08/06 07:45:54;;;;;;;;;;;;;;;;;;5077438;28;20015;-91
2022/08/06 07:48:23;;;;;;;;;;;;;;;;;;5078171;28;20369;-90
2022/08/06 07:50:49;;;;;;;;;;;;;;;;;;5075031;28;19917;-90
2022/08/06 07:53:15;;;;;;;;;;;;;;;;;;5074460;28;19973;-90
2022/08/06 07:55:43;;;;;;;;;;;;;;;;;;5074360;28;20322;-90
2022/08/06 07:58:08;;;;;;;;;;;;;;;;;;5076740;28;19916;-90
2022/08/06 08:06:23;;;;;;;;;;;;;;;;;;5077404;28;19924;-90
2022/08/06 08:08:50;;;;;;;;;;;;;;;;;;5072633;28;19916;-91
2022/08/06 08:11:20;;;;;;;;;;;;;;;;;;5076002;28;20364;-93
2022/08/06 08:13:45;;;;;;;;;;;;;;;;;;5073394;28;19916;-90
2022/08/06 08:16:20;;;;;;;;;;;;;;;;;;5076808;28;19924;-90
2022/08/06 08:18:48;;;;;;;;;;;;;;;;;;5076981;28;19917;-92
2022/08/06 08:21:15;;;;;;;;;;;;;;;;;;5073843;28;19927;-90
2022/08/06 08:29:04;;;;;;;;;;;;;;;;;;5083224;22;19970;-88
2022/08/06 08:31:29;;;;;;;;;;;;;;;;;;5056188;28;19917;-89
2022/08/06 08:33:55;;;;;;;;;;;;;;;;;;5057571;28;20011;-89
2022/08/06 08:36:23;;;;;;;;;;;;;;;;;;5054940;28;19940;-90
2022/08/06 08:38:48;;;;;;;;;;;;;;;;;;5056079;28;19917;-88
2022/08/06 08:41:18;;;;;;;;;;;;;;;;;;5055126;28;19917;-89
2022/08/06 08:43:49;;;;;;;;;;;;;;;;;;5037764;28;19925;-90
2022/08/06 08:46:15;;;;;;;;;;;;;;;;;;5058492;28;19939;-90
2022/08/06 08:48:40;;;;;;;;;;;;;;;;;;5059631;28;19921;-88
2022/08/06 08:51:08;;;;;;;;;;;;;;;;;;5058801;28;19917;-89
2022/08/06 08:53:37;;;;;;;;;;;;;;;;;;5058528;28;20283;-89
2022/08/06 08:56:03;;;;;;;;;;;;;;;;;;5057751;28;19928;-87
2022/08/06 08:58:31;;;;;;;;;;;;;;;;;;5057352;28;19921;-88
2022/08/06 09:00:57;;;;;;;;;;;;;;;;;;5057985;28;20063;-88
2022/08/06 09:03:22;;;;;;;;;;;;;;;;;;5057596;28;20015;-87
2022/08/06 09:05:48;;;;;;;;;;;;;;;;;;5056643;28;19947;-88
2022/08/06 09:08:14;;;;;;;;;;;;;;;;;;5057232;28;19940;-90
2022/08/06 09:10:41;;;;;;;;;;;;;;;;;;5056024;28;19954;-87
2022/08/06 09:13:06;;;;;;;;;;;;;;;;;;5057383;28;19924;-90
2022/08/06 09:15:32;;;;;;;;;;;;;;;;;;5057247;28;19917;-88
2022/08/06 09:17:57;;;;;;;;;;;;;;;;;;5057043;28;19975;-88
2022/08/06 09:20:22;;;;;;;;;;;;;;;;;;5057010;28;19995;-88
2022/08/06 09:22:50;;;;;;;;;;;;;;;;;;5057043;28;19951;-88
2022/08/06 09:25:36;;;;;;;;;;;;;;;;;;5055978;28;19925;-88
2022/08/06 09:28:01;;;;;;;;;;;;;;;;;;5056749;28;19921;-87
2022/08/06 09:30:27;;;;;;;;;;;;;;;;;;5056788;28;19916;-88
2022/08/06 09:32:55;;;;;;;;;;;;;;;;;;5055535;28;19921;-89
2022/08/06 09:35:21;;;;;;;;;;;;;;;;;;5057687;28;19923;-90
2022/08/06 09:37:47;;;;;;;;;;;;;;;;;;5065873;28;19921;-87
2022/08/06 09:40:19;;;;;;;;;;;;;;;;;;5068910;28;20043;-88
2022/08/06 09:42:50;;;;;;;;;;;;;;;;;;5070196;28;19917;-87
2022/08/06 09:45:19;;;;;;;;;;;;;;;;;;5071636;28;19916;-90
2022/08/06 09:47:45;;;;;;;;;;;;;;;;;;5054660;28;20356;-90
2022/08/06 09:50:10;;;;;;;;;;;;;;;;;;5056755;28;19924;-90
2022/08/06 09:52:36;;;;;;;;;;;;;;;;;;5056633;28;19917;-88
2022/08/06 09:55:02;;;;;;;;;;;;;;;;;;5055116;28;20280;-90
2022/08/06 09:57:41;;;;;;;;;;;;;;;;;;5056316;28;19917;-88
2022/08/06 10:00:08;;;;;;;;;;;;;;;;;;5056267;28;19917;-89
2022/08/06 10:02:34;;;;;;;;;;;;;;;;;;5056648;28;20008;-89
2022/08/06 10:05:10;;;;;;;;;;;;;;;;;;5054988;28;19917;-91
2022/08/06 10:07:35;;;;;;;;;;;;;;;;;;5056062;28;19967;-91
2022/08/06 10:10:00;;;;;;;;;;;;;;;;;;5055657;28;19917;-89
2022/08/06 10:12:26;;;;;;;;;;;;;;;;;;5055964;28;19963;-89
2022/08/06 10:14:51;;;;;;;;;;;;;;;;;;5058025;28;20013;-92
2022/08/06 10:17:21;;;;;;;;;;;;;;;;;;5055968;28;19921;-87
2022/08/06 10:20:05;;;;;;;;;;;;;;;;;;5059016;28;19966;-87
2022/08/06 10:22:30;;;;;;;;;;;;;;;;;;5072567;28;20540;-88
2022/08/06 10:24:58;;;;;;;;;;;;;;;;;;5075725;28;19924;-88
2022/08/06 10:27:26;;;;;;;;;;;;;;;;;;5074686;28;19934;-89
2022/08/06 10:29:51;;;;;;;;;;;;;;;;;;5066497;28;19917;-87
2022/08/06 10:32:22;;;;;;;;;;;;;;;;;;5058668;28;20063;-88
2022/08/06 10:34:49;;;;;;;;;;;;;;;;;;5057246;28;19917;-89
2022/08/06 10:37:16;;;;;;;;;;;;;;;;;;5056770;28;19916;-90
2022/08/06 10:39:45;;;;;;;;;;;;;;;;;;5056163;28;19917;-89
2022/08/06 10:42:11;;;;;;;;;;;;;;;;;;5054202;28;19921;-90
2022/08/06 10:44:37;;;;;;;;;;;;;;;;;;5055511;28;19921;-91
2022/08/06 10:47:03;;;;;;;;;;;;;;;;;;5053742;28;19921;-90
2022/08/06 10:49:29;;;;;;;;;;;;;;;;;;5035607;28;19917;-89
2022/08/06 10:51:55;;;;;;;;;;;;;;;;;;5036309;28;19917;-90
2022/08/06 10:54:21;;;;;;;;;;;;;;;;;;5035524;28;20016;-91
2022/08/06 10:56:46;;;;;;;;;;;;;;;;;;5034503;28;20384;-89
2022/08/06 10:59:12;;;;;;;;;;;;;;;;;;5035447;28;19952;-89
2022/08/06 11:01:44;;;;;;;;;;;;;;;;;;5035322;28;19917;-89
2022/08/06 11:04:15;;;;;;;;;;;;;;;;;;5035289;28;19921;-87
2022/08/06 11:06:47;;;;;;;;;;;;;;;;;;5034055;28;19987;-90
2022/08/06 11:09:23;;;;;;;;;;;;;;;;;;5035286;28;20369;-89
2022/08/06 11:11:52;;;;;;;;;;;;;;;;;;5034310;28;19928;-90
2022/08/06 11:14:17;;;;;;;;;;;;;;;;;;5033816;28;19974;-87
2022/08/06 11:16:53;;;;;;;;;;;;;;;;;;5034730;28;19921;-90
2022/08/06 11:19:18;;;;;;;;;;;;;;;;;;5034938;28;19975;-87
2022/08/06 11:21:45;;;;;;;;;;;;;;;;;;5034843;28;20372;-89
2022/08/06 11:24:12;;;;;;;;;;;;;;;;;;5035774;28;20321;-92
2022/08/06 11:26:39;;;;;;;;;;;;;;;;;;5031968;28;20019;-89
2022/08/06 11:29:06;;;;;;;;;;;;;;;;;;5031741;28;20383;-89
2022/08/06 11:31:36;;;;;;;;;;;;;;;;;;5033086;28;20311;-89
2022/08/06 11:34:03;;;;;;;;;;;;;;;;;;5034281;28;19921;-88
2022/08/06 11:36:42;;;;;;;;;;;;;;;;;;5033493;28;20400;-89
2022/08/06 11:39:07;;;;;;;;;;;;;;;;;;5032376;28;19996;-89
2022/08/06 11:41:54;;;;;;;;;;;;;;;;;;5032620;28;19923;-90
2022/08/06 11:44:21;;;;;;;;;;;;;;;;;;5033347;28;20653;-89
2022/08/06 11:46:47;;;;;;;;;;;;;;;;;;5031463;28;19924;-89
2022/08/06 11:49:14;;;;;;;;;;;;;;;;;;5032369;28;19921;-91
2022/08/06 11:51:42;;;;;;;;;;;;;;;;;;5032448;28;20352;-90
2022/08/06 11:54:16;;;;;;;;;;;;;;;;;;5034509;28;20377;-90
2022/08/06 11:57:13;;;;;;;;;;;;;;;;;;5034485;28;19967;-89
2022/08/06 11:59:57;;;;;;;;;;;;;;;;;;5021688;28;19921;-90
2022/08/06 12:02:53;;;;;;;;;;;;;;;;;;5034305;28;19972;-91
2022/08/06 12:05:19;;;;;;;;;;;;;;;;;;5028753;28;20023;-88
2022/08/06 12:07:49;;;;;;;;;;;;;;;;;;5032958;28;19925;-90
2022/08/06 12:10:15;;;;;;;;;;;;;;;;;;5034086;28;20413;-91
2022/08/06 12:12:47;;;;;;;;;;;;;;;;;;5032857;28;19948;-90
2022/08/06 12:15:12;;;;;;;;;;;;;;;;;;5034289;28;19963;-91
2022/08/06 12:17:42;;;;;;;;;;;;;;;;;;5034052;28;20365;-91
2022/08/06 12:20:08;;;;;;;;;;;;;;;;;;5034015;28;19963;-90
2022/08/06 12:22:34;;;;;;;;;;;;;;;;;;5033798;28;19917;-90
2022/08/06 12:25:02;;;;;;;;;;;;;;;;;;5034065;28;19917;-90
2022/08/06 12:27:31;;;;;;;;;;;;;;;;;;5034128;28;19990;-89
2022/08/06 12:30:01;;;;;;;;;;;;;;;;;;5033775;28;20011;-89
2022/08/06 12:32:28;;;;;;;;;;;;;;;;;;5033706;28;19917;-90
2022/08/06 12:34:58;;;;;;;;;;;;;;;;;;5033781;28;19944;-89
2022/08/06 12:37:37;;;;;;;;;;;;;;;;;;5034109;28;19936;-90
2022/08/06 12:42:50;;;;;;;;;;;;;;;;;;5033457;28;21302;-88
2022/08/06 12:45:23;;;;;;;;;;;;;;;;;;5033681;28;19917;-88
2022/08/06 12:48:00;;;;;;;;;;;;;;;;;;5033749;28;20017;-88
2022/08/06 12:50:27;;;;;;;;;;;;;;;;;;5034045;28;20008;-89
2022/08/06 12:53:09;;;;;;;;;;;;;;;;;;5033482;28;20651;-89
2022/08/06 12:55:36;;;;;;;;;;;;;;;;;;5033917;28;19913;-88
2022/08/06 12:58:02;;;;;;;;;;;;;;;;;;5033548;28;20387;-89
2022/08/06 13:00:28;;;;;;;;;;;;;;;;;;5033503;28;19913;-89
2022/08/06 13:02:54;;;;;;;;;;;;;;;;;;5033647;28;19917;-88
2022/08/06 13:05:20;;;;;;;;;;;;;;;;;;5032565;28;20356;-88
2022/08/06 13:07:46;;;;;;;;;;;;;;;;;;5033535;28;20025;-88
2022/08/06 13:10:12;;;;;;;;;;;;;;;;;;5033635;28;19917;-89
2022/08/06 13:12:38;;;;;;;;;;;;;;;;;;5033246;28;19917;-89
2022/08/06 13:15:11;;;;;;;;;;;;;;;;;;5033448;28;19924;-89
2022/08/06 13:17:37;;;;;;;;;;;;;;;;;;5033399;28;19917;-89
2022/08/06 13:20:03;;;;;;;;;;;;;;;;;;5032434;28;19921;-89
2022/08/06 13:22:28;;;;;;;;;;;;;;;;;;5033295;28;19917;-88
2022/08/06 13:25:21;;;;;;;;;;;;;;;;;;5033451;28;19924;-89
2022/08/06 13:27:47;;;;;;;;;;;;;;;;;;5033119;28;19921;-90
2022/08/06 13:30:12;;;;;;;;;;;;;;;;;;5033344;28;19932;-88
2022/08/06 13:32:38;;;;;;;;;;;;;;;;;;5033419;28;19952;-90
2022/08/06 13:35:10;;;;;;;;;;;;;;;;;;5036597;28;19917;-90
2022/08/06 13:37:43;;;;;;;;;;;;;;;;;;5035784;28;19948;-91
2022/08/06 13:40:09;;;;;;;;;;;;;;;;;;5036914;28;19924;-89
2022/08/06 13:42:47;;;;;;;;;;;;;;;;;;5036896;28;19921;-89
2022/08/06 13:45:20;;;;;;;;;;;;;;;;;;5035783;28;20339;-89
2022/08/06 13:47:49;;;;;;;;;;;;;;;;;;5036804;28;20413;-89
2022/08/06 13:50:15;;;;;;;;;;;;;;;;;;5036615;28;20020;-90
2022/08/06 13:52:41;;;;;;;;;;;;;;;;;;5035303;28;19918;-90
2022/08/06 13:55:06;;;;;;;;;;;;;;;;;;5037407;28;19917;-89
2022/08/06 13:57:35;;;;;;;;;;;;;;;;;;5036794;28;20031;-89
2022/08/06 14:00:01;;;;;;;;;;;;;;;;;;5038016;28;19952;-89
2022/08/06 14:02:26;;;;;;;;;;;;;;;;;;5035577;28;19940;-89
2022/08/06 14:04:51;;;;;;;;;;;;;;;;;;5035710;28;19924;-89
2022/08/06 14:07:17;;;;;;;;;;;;;;;;;;5036526;28;19921;-88
2022/08/06 14:09:43;;;;;;;;;;;;;;;;;;5035294;28;19967;-88
2022/08/06 14:12:10;;;;;;;;;;;;;;;;;;5036182;28;20426;-87
2022/08/06 14:14:35;;;;;;;;;;;;;;;;;;5036454;28;19917;-86
2022/08/06 14:17:01;;;;;;;;;;;;;;;;;;5036604;28;20016;-86
2022/08/06 14:19:27;;;;;;;;;;;;;;;;;;5036487;28;19917;-88
2022/08/06 14:21:53;;;;;;;;;;;;;;;;;;5036468;28;19921;-87
2022/08/06 14:24:18;;;;;;;;;;;;;;;;;;5037014;28;19924;-88
2022/08/06 14:26:44;;;;;;;;;;;;;;;;;;5058522;28;19992;-88
2022/08/06 14:29:09;;;;;;;;;;;;;;;;;;5056260;28;19927;-88
2022/08/06 14:31:34;;;;;;;;;;;;;;;;;;5065149;28;19946;-88
2022/08/06 14:34:00;;;;;;;;;;;;;;;;;;5069013;28;19921;-86
2022/08/06 14:36:26;;;;;;;;;;;;;;;;;;5058457;28;19956;-88
2022/08/06 14:38:51;;;;;;;;;;;;;;;;;;5056107;28;19916;-88
2022/08/06 14:46:44;;;;;;;;;;;;;;;;;;5055705;28;20053;-87
2022/08/06 14:49:10;;;;;;;;;;;;;;;;;;5054404;28;20355;-87
2022/08/06 14:51:35;;;;;;;;;;;;;;;;;;5055413;28;20319;-89
2022/08/06 14:54:01;;;;;;;;;;;;;;;;;;5055507;28;19939;-87
2022/08/06 14:56:26;;;;;;;;;;;;;;;;;;5055469;28;19952;-88
2022/08/06 14:58:52;;;;;;;;;;;;;;;;;;5055449;28;20011;-86
2022/08/06 15:01:17;;;;;;;;;;;;;;;;;;5055617;28;20398;-88
2022/08/06 15:03:42;;;;;;;;;;;;;;;;;;5056162;28;19947;-86
2022/08/06 15:06:08;;;;;;;;;;;;;;;;;;5055989;28;19970;-89
2022/08/06 15:08:35;;;;;;;;;;;;;;;;;;5055384;28;19999;-88
2022/08/06 15:11:01;;;;;;;;;;;;;;;;;;5055343;28;19917;-88
2022/08/06 15:13:26;;;;;;;;;;;;;;;;;;5055140;28;19921;-87
2022/08/06 15:15:52;;;;;;;;;;;;;;;;;;5055252;28;19924;-89
2022/08/06 15:18:17;;;;;;;;;;;;;;;;;;5055219;28;19921;-87
2022/08/06 15:20:43;;;;;;;;;;;;;;;;;;5054991;28;19927;-86
2022/08/06 15:23:09;;;;;;;;;;;;;;;;;;5055375;28;20228;-91
2022/08/06 15:25:38;;;;;;;;;;;;;;;;;;5053882;28;20015;-89
2022/08/06 15:28:04;;;;;;;;;;;;;;;;;;5054512;28;19924;-88
2022/08/06 15:30:30;;;;;;;;;;;;;;;;;;5055145;28;20293;-91
2022/08/06 15:32:55;;;;;;;;;;;;;;;;;;5054363;28;19970;-89
2022/08/06 15:35:21;;;;;;;;;;;;;;;;;;5055339;28;19963;-88
2022/08/06 15:37:48;;;;;;;;;;;;;;;;;;5055648;28;19917;-91
2022/08/06 15:40:14;;;;;;;;;;;;;;;;;;5055373;28;19978;-91
2022/08/06 15:42:39;;;;;;;;;;;;;;;;;;5055029;28;20372;-89
2022/08/06 15:45:05;;;;;;;;;;;;;;;;;;5056426;28;19926;-90
2022/08/06 15:47:30;;;;;;;;;;;;;;;;;;5057034;28;20023;-89
2022/08/06 15:49:56;;;;;;;;;;;;;;;;;;5050409;28;19980;-89
2022/08/06 15:52:21;;;;;;;;;;;;;;;;;;5045436;28;19925;-92
2022/08/06 15:54:47;;;;;;;;;;;;;;;;;;5044590;28;19984;-89
2022/08/06 15:57:15;;;;;;;;;;;;;;;;;;5043883;28;19929;-89
2022/08/06 15:59:41;;;;;;;;;;;;;;;;;;5043658;28;20275;-91
2022/08/06 16:02:06;;;;;;;;;;;;;;;;;;5048356;28;19917;-89
2022/08/06 16:04:32;;;;;;;;;;;;;;;;;;5046321;28;20400;-89
2022/08/06 16:06:57;;;;;;;;;;;;;;;;;;5049883;28;19921;-88
2022/08/06 16:09:23;;;;;;;;;;;;;;;;;;5054956;28;19948;-90
2022/08/06 16:11:48;;;;;;;;;;;;;;;;;;5054894;28;19917;-88
2022/08/06 16:14:14;;;;;;;;;;;;;;;;;;5055041;28;20339;-88
2022/08/06 16:16:39;;;;;;;;;;;;;;;;;;5054528;28;20003;-89
2022/08/06 16:19:05;;;;;;;;;;;;;;;;;;5054716;28;20371;-89
2022/08/06 16:21:30;;;;;;;;;;;;;;;;;;5054282;28;19940;-91
2022/08/06 16:23:56;;;;;;;;;;;;;;;;;;5052930;28;19982;-88
2022/08/06 16:26:21;;;;;;;;;;;;;;;;;;5054007;28;20287;-88
2022/08/06 16:28:47;;;;;;;;;;;;;;;;;;5053623;28;19921;-90
2022/08/06 16:31:12;;;;;;;;;;;;;;;;;;5052607;28;19927;-89
2022/08/06 16:33:38;;;;;;;;;;;;;;;;;;5053756;28;19923;-88
2022/08/06 16:36:03;;;;;;;;;;;;;;;;;;5053827;28;20016;-89
2022/08/06 16:38:29;;;;;;;;;;;;;;;;;;5053880;28;20288;-90
2022/08/06 16:40:54;;;;;;;;;;;;;;;;;;5053721;28;20356;-90
2022/08/06 16:43:20;;;;;;;;;;;;;;;;;;5053602;28;19972;-89
2022/08/06 16:45:45;;;;;;;;;;;;;;;;;;5053914;28;19948;-88
2022/08/06 16:48:11;;;;;;;;;;;;;;;;;;5053574;28;19917;-88
2022/08/06 16:50:37;;;;;;;;;;;;;;;;;;5052539;28;19924;-89
2022/08/06 16:53:03;;;;;;;;;;;;;;;;;;5053301;28;20367;-89
2022/08/06 16:55:29;;;;;;;;;;;;;;;;;;5053471;28;19917;-88
2022/08/06 16:57:54;;;;;;;;;;;;;;;;;;5051471;28;19947;-85
2022/08/06 17:00:20;;;;;;;;;;;;;;;;;;5043916;28;19921;-89
2022/08/06 17:02:45;;;;;;;;;;;;;;;;;;5033669;28;19917;-86
2022/08/06 17:05:17;;;;;;;;;;;;;;;;;;5033443;28;20333;-88
2022/08/06 17:07:44;;;;;;;;;;;;;;;;;;5034965;28;19925;-87
2022/08/06 17:10:10;;;;;;;;;;;;;;;;;;5037338;28;20331;-88